Time;durP1;ratioP1;P1;durP2;ratioP2;P2;SDS_P1;SDS_P2;PMS_P1;PMS_P2;Temp;Humidity;BMP_temperature;BMP_pressure;BME280_temperature;BME280_humidity;BME280_pressure;Samples;Min_cycle;Max_cycle;Signal;HPM_P1;HPM_P2
2023/01/24 01:17:12;;;;;;;30.20;17.80;;;;;;;3.79;83.02;103374.26;104729;1300;24248;-59
2023/01/24 01:19:39;;;;;;;31.50;18.80;;;;;;;3.85;82.16;103374.92;106321;1282;25348;-59
2023/01/24 01:22:07;;;;;;;25.30;17.80;;;;;;;3.91;81.72;103378.81;105982;1283;25497;-59
2023/01/24 01:24:34;;;;;;;26.70;16.80;;;;;;;3.96;81.12;103382.45;104705;1279;1003735;-59
2023/01/24 01:27:02;;;;;;;24.30;17.00;;;;;;;4.00;80.64;103381.77;106345;1278;26229;-59
2023/01/24 01:29:29;;;;;;;23.50;16.00;;;;;;;4.04;80.16;103385.41;106283;1281;25407;-59
2023/01/24 01:31:56;;;;;;;25.20;17.00;;;;;;;4.07;79.54;103386.80;105622;1279;1003452;-59
2023/01/24 01:34:24;;;;;;;23.70;16.80;;;;;;;4.11;79.24;103390.55;105634;1280;1003577;-59
2023/01/24 01:36:51;;;;;;;25.50;17.50;;;;;;;4.14;78.96;103384.18;106326;1282;25497;-59
2023/01/24 01:39:18;;;;;;;23.50;16.80;;;;;;;4.18;78.61;103387.42;105904;1285;24210;-59
2023/01/24 01:41:45;;;;;;;24.30;17.80;;;;;;;4.19;78.20;103385.45;105676;1277;1003305;-59
2023/01/24 01:44:40;;;;;;;20.20;14.30;;;;;;;4.22;78.16;103385.75;106122;1278;25567;-59
2023/01/24 01:47:25;;;;;;;20.50;15.20;;;;;;;4.24;77.40;103384.48;106141;1274;1002855;-59
2023/01/24 01:50:00;;;;;;;22.20;14.80;;;;;;;4.25;77.03;103387.62;106922;1266;24441;-59
2023/01/24 01:52:31;;;;;;;21.40;15.40;;;;;;;4.25;76.78;103388.48;106860;1273;25490;-59
2023/01/24 01:55:01;;;;;;;23.60;14.70;;;;;;;4.26;76.37;103387.65;107275;1267;22508;-59
2023/01/24 01:57:30;;;;;;;21.90;15.10;;;;;;;4.27;75.82;103392.83;106343;1266;1003565;-59
2023/01/24 02:00:18;;;;;;;23.60;15.30;;;;;;;4.28;75.83;103390.34;106030;1273;1003026;-59
2023/01/24 02:02:54;;;;;;;20.60;14.20;;;;;;;4.38;75.33;103392.65;106745;1273;25517;-58
2023/01/24 02:05:22;;;;;;;19.90;14.00;;;;;;;4.43;74.60;103393.05;106443;1277;24253;-59
2023/01/24 02:07:58;;;;;;;20.70;14.50;;;;;;;4.44;74.12;103393.48;106325;1277;24398;-58
2023/01/24 02:11:37;;;;;;;18.10;13.80;;;;;;;4.45;73.63;103388.16;106836;1273;25540;-58
2023/01/24 02:13:13;;;;;;;23.30;16.20;;;;;;;4.45;73.20;103387.65;106913;1275;25414;-58
2023/01/24 02:18:27;;;;;;;19.80;15.00;;;;;;;4.42;72.43;103389.08;105827;1273;1003621;-58
2023/01/24 02:20:54;;;;;;;20.10;15.90;;;;;;;4.41;72.40;103391.10;106668;1272;25438;-58
2023/01/24 02:23:27;;;;;;;21.50;16.60;;;;;;;4.43;72.63;103392.39;106708;1270;25624;-58
2023/01/24 02:26:09;;;;;;;24.60;17.50;;;;;;;4.44;72.19;103390.36;106808;1270;22530;-58
2023/01/24 02:28:55;;;;;;;24.70;17.30;;;;;;;4.41;71.96;103388.50;106758;1276;22530;-59
2023/01/24 02:31:22;;;;;;;20.90;15.70;;;;;;;4.39;71.98;103389.64;106931;1267;22525;-58
2023/01/24 02:33:50;;;;;;;20.70;15.90;;;;;;;4.39;71.83;103387.02;107074;1272;25398;-58
2023/01/24 02:36:22;;;;;;;20.80;15.80;;;;;;;4.39;71.85;103389.28;107068;1269;25335;-58
2023/01/24 02:39:12;;;;;;;;;;;;;;;4.38;71.31;103383.92;106802;1274;24196;-58
2023/01/24 02:41:43;;;;;;;19.80;14.40;;;;;;;4.37;70.74;103384.36;106675;1273;25370;-59
2023/01/24 02:44:13;;;;;;;19.20;14.70;;;;;;;4.33;70.71;103386.95;106682;1273;25490;-59
2023/01/24 02:46:43;;;;;;;17.70;14.00;;;;;;;4.32;70.58;103384.47;105979;1273;1002950;-59
2023/01/24 02:49:10;;;;;;;17.70;13.30;;;;;;;4.30;70.25;103383.03;106511;1276;23894;-58
2023/01/24 02:54:24;;;;;;;16.70;12.50;;;;;;;4.26;69.84;103384.02;105711;1278;1003799;-59
2023/01/24 02:59:40;;;;;;;16.20;12.20;;;;;;;4.24;69.22;103381.39;106012;1273;1003521;-58
2023/01/24 03:02:08;;;;;;;13.50;10.60;;;;;;;4.24;69.32;103379.50;106751;1273;25542;-58
2023/01/24 03:04:38;;;;;;;13.30;10.50;;;;;;;4.23;69.00;103380.81;105724;1275;1003219;-59
2023/01/24 03:07:05;;;;;;;14.40;11.30;;;;;;;4.22;68.85;103382.66;106465;1273;25348;-58
2023/01/24 03:09:33;;;;;;;13.70;10.50;;;;;;;4.23;68.69;103385.44;106667;1272;22547;-58
2023/01/24 03:34:33;;;;;;;15.90;11.60;;;;;;;4.28;67.86;103369.04;106928;1272;25326;-59
2023/01/24 03:37:00;;;;;;;16.10;10.10;;;;;;;4.25;67.52;103370.92;106858;1270;25384;-58
2023/01/24 03:42:14;;;;;;;12.20;9.40;;;;;;;4.28;67.21;103371.92;107061;1272;25554;-59
2023/01/24 03:44:41;;;;;;;12.20;9.70;;;;;;;4.27;67.20;103379.80;107096;1267;25335;-59
2023/01/24 03:47:09;;;;;;;13.50;10.40;;;;;;;4.27;67.21;103379.78;106985;1274;22525;-58
2023/01/24 03:52:28;;;;;;;13.60;9.60;;;;;;;4.25;67.20;103386.39;106925;1273;25692;-58
2023/01/24 03:55:00;;;;;;;14.60;10.40;;;;;;;4.26;67.03;103386.46;107112;1270;25379;-58
2023/01/24 03:57:29;;;;;;;12.60;9.40;;;;;;;4.24;66.94;103393.57;107217;1270;25552;-58
2023/01/24 03:59:57;;;;;;;13.20;9.90;;;;;;;4.24;66.94;103391.88;107112;1267;25413;-58
2023/01/24 07:16:05;;;;;;;29.90;21.10;;;;;;;1.72;84.50;103448.89;105119;1290;558010;-59
2023/01/24 07:18:37;;;;;;;35.20;22.40;;;;;;;2.87;77.59;103447.33;106236;1281;25390;-59
2023/01/24 07:21:07;;;;;;;27.00;20.20;;;;;;;3.12;76.18;103446.58;105464;1281;1003013;-59
2023/01/24 07:23:34;;;;;;;35.10;23.40;;;;;;;3.48;74.02;103451.50;105894;1284;24215;-59
2023/01/24 07:26:03;;;;;;;26.70;20.20;;;;;;;3.70;72.55;103453.48;106183;1280;24239;-60
2023/01/24 07:28:30;;;;;;;31.10;21.10;;;;;;;3.81;71.93;103457.61;106034;1278;250866;-58
2023/01/24 07:30:57;;;;;;;36.90;23.30;;;;;;;3.85;71.27;103456.95;105911;1282;25452;-59
2023/01/24 07:33:24;;;;;;;37.90;24.80;;;;;;;3.70;71.17;103456.59;106368;1278;25358;-58
2023/01/24 07:35:56;;;;;;;28.80;19.70;;;;;;;3.44;72.37;103456.31;106273;1278;25383;-59
2023/01/24 07:38:23;;;;;;;24.40;18.80;;;;;;;3.43;72.25;103458.98;106513;1278;25494;-59
2023/01/24 07:40:50;;;;;;;21.00;16.80;;;;;;;3.44;71.93;103458.19;106023;1278;25450;-59
2023/01/24 07:43:19;;;;;;;23.80;18.20;;;;;;;3.47;71.70;103456.79;106336;1278;25435;-59
2023/01/24 07:45:46;;;;;;;22.70;17.50;;;;;;;3.50;71.63;103457.27;106420;1279;25469;-59
2023/01/24 07:48:13;;;;;;;19.60;15.90;;;;;;;3.55;71.82;103455.80;106383;1278;24257;-59
2023/01/24 07:50:41;;;;;;;23.50;17.30;;;;;;;3.59;71.39;103453.59;107079;1266;25363;-59
2023/01/24 07:53:08;;;;;;;31.90;22.70;;;;;;;3.60;71.03;103452.65;107033;1266;25565;-59
2023/01/24 07:55:35;;;;;;;34.50;25.10;;;;;;;3.62;70.58;103451.55;106875;1266;25340;-60
2023/01/24 07:58:02;;;;;;;43.40;30.60;;;;;;;3.63;70.34;103454.65;107051;1269;25240;-59
2023/01/24 08:00:29;;;;;;;35.10;25.90;;;;;;;3.63;70.31;103457.41;107008;1266;22532;-59
2023/01/24 08:02:56;;;;;;;60.60;39.30;;;;;;;3.65;70.23;103454.44;107062;1267;25415;-59
2023/01/24 08:05:24;;;;;;;50.10;33.20;;;;;;;3.68;69.93;103456.66;106428;1271;1002854;-59
2023/01/24 08:07:53;;;;;;;27.20;20.70;;;;;;;3.70;69.86;103456.23;107101;1267;25422;-59
2023/01/24 08:10:21;;;;;;;23.90;18.40;;;;;;;3.72;70.02;103456.69;107101;1270;24654;-59
2023/01/24 08:12:50;;;;;;;21.70;16.80;;;;;;;3.75;69.98;103459.89;107107;1274;25428;-59
2023/01/24 10:08:48;;;;;;;23.90;18.30;;;;;;;1.95;82.56;103420.96;104718;1297;557987;-58
2023/01/24 10:11:53;;;;;;;25.90;18.70;;;;;;;3.05;76.25;103414.88;106264;1282;25465;-57
2023/01/24 10:14:31;;;;;;;26.00;19.40;;;;;;;3.27;74.78;103410.34;106110;1282;25342;-57
2023/01/24 10:17:08;;;;;;;25.80;18.00;;;;;;;3.39;74.48;103406.27;106238;1281;25514;-57
2023/01/24 10:20:07;;;;;;;24.60;17.30;;;;;;;3.48;73.76;103408.60;106154;1284;25406;-58
2023/01/24 10:23:02;;;;;;;23.80;18.50;;;;;;;3.56;73.43;103403.16;105964;1285;152813;-58
2023/01/24 10:25:48;;;;;;;26.10;18.10;;;;;;;3.61;72.93;103404.64;106440;1281;25369;-58
2023/01/24 10:28:20;;;;;;;21.30;16.60;;;;;;;3.65;72.34;103399.13;106982;1278;25389;-59
2023/01/24 10:30:53;;;;;;;25.40;18.50;;;;;;;3.64;71.90;103397.22;106665;1279;22530;-59
2023/01/24 10:33:20;;;;;;;22.50;17.30;;;;;;;3.64;71.90;103399.27;106417;1281;22539;-59
2023/01/24 10:35:53;;;;;;;22.80;16.50;;;;;;;3.87;71.25;103397.32;106054;1285;25357;-59
2023/01/24 10:38:20;;;;;;;21.80;16.50;;;;;;;4.07;70.07;103391.95;106511;1282;24222;-59
2023/01/24 10:40:54;;;;;;;22.80;17.10;;;;;;;4.12;69.66;103387.02;106188;1274;22619;-59
2023/01/24 10:43:26;;;;;;;22.40;16.80;;;;;;;4.15;69.37;103380.60;105462;1283;1003749;-59
2023/01/24 10:45:57;;;;;;;22.80;16.80;;;;;;;4.21;69.19;103374.54;106117;1283;25514;-59
2023/01/24 10:48:41;;;;;;;25.50;18.30;;;;;;;4.31;68.73;103366.76;106489;1278;25369;-59
2023/01/24 10:51:16;;;;;;;21.00;16.40;;;;;;;4.34;68.47;103363.79;106032;1275;25546;-59
2023/01/24 10:53:47;;;;;;;21.50;17.20;;;;;;;4.44;68.22;103360.44;106050;1283;25507;-58
2023/01/24 10:56:16;;;;;;;22.40;16.90;;;;;;;4.45;68.01;103356.38;106374;1285;25416;-59
2023/01/24 10:59:05;;;;;;;22.40;16.70;;;;;;;4.44;68.14;103350.31;106564;1280;22538;-59
2023/01/24 11:01:51;;;;;;;24.20;17.40;;;;;;;4.44;68.13;103346.17;106193;1282;25417;-59
2023/01/24 11:04:27;;;;;;;21.40;16.60;;;;;;;4.45;67.96;103344.17;106548;1271;22542;-59
2023/01/24 11:06:54;;;;;;;20.10;15.80;;;;;;;4.48;68.04;103340.19;105730;1279;1016278;-59
2023/01/24 11:09:25;;;;;;;19.90;15.40;;;;;;;4.55;67.92;103342.55;106458;1279;25346;-59
2023/01/24 11:11:56;;;;;;;20.70;16.10;;;;;;;4.59;67.75;103337.25;105402;1283;1003069;-59
2023/01/24 11:14:26;;;;;;;21.60;16.40;;;;;;;4.62;67.73;103333.77;106607;1279;25358;-59
2023/01/24 11:16:58;;;;;;;20.20;15.20;;;;;;;4.62;67.49;103329.98;105541;1272;1003005;-60
2023/01/24 11:19:38;;;;;;;20.80;16.00;;;;;;;4.64;67.52;103332.10;106251;1279;22560;-59
2023/01/24 11:22:19;;;;;;;21.50;16.90;;;;;;;4.64;67.57;103334.73;106323;1279;22543;-59
2023/01/24 11:24:46;;;;;;;22.30;16.80;;;;;;;4.75;67.11;103332.81;106318;1279;25544;-59
2023/01/24 11:27:18;;;;;;;20.60;15.40;;;;;;;4.76;67.06;103330.96;105689;1273;1003317;-58
2023/01/24 11:29:53;;;;;;;19.80;15.60;;;;;;;4.57;67.38;103331.66;105923;1285;22536;-59
2023/01/24 11:32:33;;;;;;;17.90;14.30;;;;;;;4.13;69.05;103331.56;105693;1264;1002926;-59
2023/01/24 11:35:16;;;;;;;20.00;15.80;;;;;;;4.07;69.40;103336.08;106360;1279;25350;-59
2023/01/24 11:38:11;;;;;;;23.30;17.10;;;;;;;4.06;69.61;103338.77;105841;1274;1003388;-59
2023/01/24 11:40:54;;;;;;;22.50;17.20;;;;;;;4.06;69.83;103345.30;106011;1279;25392;-60
2023/01/24 11:43:40;;;;;;;22.80;16.50;;;;;;;4.07;69.89;103340.87;106237;1279;25528;-59
2023/01/24 11:46:22;;;;;;;19.60;16.00;;;;;;;4.07;70.12;103343.67;106149;1285;24397;-59
2023/01/24 11:49:04;;;;;;;18.50;15.10;;;;;;;4.06;70.20;103345.33;105816;1285;22541;-59
2023/01/24 11:51:38;;;;;;;;;;;;;;;4.07;70.04;103343.32;106190;1280;25328;-59
2023/01/24 11:54:59;;;;;;;22.30;17.20;;;;;;;4.09;69.75;103350.09;106484;1279;25442;-60
2023/01/24 11:57:52;;;;;;;19.20;15.10;;;;;;;4.08;69.80;103357.47;105027;1291;1003764;-60
2023/01/24 12:00:19;;;;;;;20.20;16.10;;;;;;;4.07;70.15;103355.34;105820;1285;24281;-59
2023/01/24 12:03:05;;;;;;;24.50;16.30;;;;;;;4.07;69.86;103355.67;106132;1280;25365;-60
2023/01/24 12:05:54;;;;;;;22.30;16.20;;;;;;;4.08;70.13;103352.29;105922;1289;24206;-59
2023/01/24 12:08:38;;;;;;;23.50;18.20;;;;;;;4.09;70.02;103350.44;105206;1279;1003062;-60
2023/01/24 12:11:28;;;;;;;21.90;16.70;;;;;;;4.09;69.91;103352.67;105885;1286;22554;-59
2023/01/24 12:14:09;;;;;;;20.60;16.50;;;;;;;4.09;69.78;103354.95;105502;1291;25445;-60
2023/01/24 12:16:55;;;;;;;19.70;16.30;;;;;;;4.11;69.93;103355.52;105482;1294;23317;-60
2023/01/24 12:19:53;;;;;;;20.70;16.60;;;;;;;4.13;69.82;103356.31;105449;1292;25354;-60
2023/01/24 12:22:22;;;;;;;21.80;17.10;;;;;;;4.12;69.45;103349.20;105595;1291;25265;-59
2023/01/24 12:24:55;;;;;;;21.70;16.50;;;;;;;4.11;69.73;103350.55;105091;1280;1002887;-59
2023/01/24 12:27:25;;;;;;;28.00;18.10;;;;;;;4.13;70.02;103343.77;106024;1267;22540;-60
2023/01/24 12:29:52;;;;;;;30.40;18.20;;;;;;;4.12;69.94;103344.05;106036;1282;24420;-59
2023/01/24 12:32:23;;;;;;;27.30;19.30;;;;;;;4.11;69.83;103338.70;105295;1280;1003811;-59
2023/01/24 12:35:32;;;;;;;24.70;18.20;;;;;;;4.09;69.67;103342.05;106175;1282;25340;-59
2023/01/24 12:38:20;;;;;;;21.60;17.60;;;;;;;4.08;69.68;103341.33;105073;1286;1002865;-60
2023/01/24 12:41:00;;;;;;;26.20;18.30;;;;;;;4.07;69.87;103343.67;105730;1289;22585;-60
2023/01/24 12:43:46;;;;;;;22.20;17.80;;;;;;;4.42;68.90;103337.33;105868;1286;25346;-59
2023/01/24 12:46:17;;;;;;;23.70;16.50;;;;;;;4.84;67.37;103340.40;105560;1286;25362;-59
2023/01/24 12:48:50;;;;;;;20.60;16.60;;;;;;;4.89;67.11;103338.20;105743;1289;25362;-58
2023/01/24 12:51:24;;;;;;;20.60;15.40;;;;;;;4.86;67.16;103339.28;105968;1286;25375;-59
2023/01/24 12:53:57;;;;;;;19.80;15.30;;;;;;;4.97;67.03;103338.35;105797;1273;22557;-59
2023/01/24 12:57:14;;;;;;;23.30;16.10;;;;;;;5.08;66.48;103340.38;105654;1285;25389;-59
2023/01/24 12:59:41;;;;;;;21.50;16.00;;;;;;;5.09;66.54;103337.17;105377;1292;22539;-59
2023/01/24 13:02:45;;;;;;;20.90;15.90;;;;;;;4.81;67.17;103337.48;105358;1288;25396;-59
2023/01/24 13:05:33;;;;;;;21.70;16.10;;;;;;;4.19;69.23;103332.53;104764;1288;1002983;-59
2023/01/24 19:13:40;;;;;;;30.50;17.30;;;;;;;5.33;77.32;103345.02;104986;1301;22556;-60
2023/01/24 19:16:08;;;;;;;28.80;16.00;;;;;;;5.59;75.98;103338.86;105913;1285;25504;-60
2023/01/24 19:18:36;;;;;;;24.40;15.40;;;;;;;5.74;74.92;103336.52;106260;1282;24146;-60
2023/01/24 19:21:05;;;;;;;22.30;14.70;;;;;;;5.84;74.24;103336.95;106256;1280;127678;-61
2023/01/24 19:23:39;;;;;;;24.40;14.40;;;;;;;5.91;73.50;103337.07;106280;1282;22533;-60
2023/01/24 19:26:06;;;;;;;21.40;13.60;;;;;;;5.96;73.08;103337.10;106249;1279;24280;-60
2023/01/24 19:28:34;;;;;;;25.90;12.90;;;;;;;6.03;72.60;103337.55;106357;1279;22550;-60
2023/01/24 19:31:01;;;;;;;22.00;12.60;;;;;;;6.09;72.09;103340.36;106413;1278;25539;-60
2023/01/24 19:33:28;;;;;;;23.10;12.70;;;;;;;6.15;71.80;103340.73;106145;1275;22647;-60
2023/01/24 19:35:56;;;;;;;20.60;13.10;;;;;;;6.18;71.24;103343.97;106314;1278;25344;-59
2023/01/24 19:38:24;;;;;;;18.60;12.20;;;;;;;6.21;70.89;103341.84;106287;1278;22731;-59
2023/01/24 19:40:50;;;;;;;22.40;10.80;;;;;;;6.25;70.58;103347.16;105988;1285;24389;-59
2023/01/24 19:43:18;;;;;;;16.40;11.30;;;;;;;6.29;70.30;103345.56;105997;1286;25385;-59
2023/01/24 19:45:45;;;;;;;20.20;11.30;;;;;;;6.35;69.97;103343.20;105601;1273;1002799;-58
2023/01/24 19:48:13;;;;;;;16.90;10.60;;;;;;;6.40;69.74;103341.51;106346;1278;25347;-60
2023/01/24 19:54:01;;;;;;;16.20;10.10;;;;;;;6.13;70.14;103341.34;104213;1294;545011;-60
2023/01/24 19:56:29;;;;;;;16.20;10.20;;;;;;;5.70;71.52;103343.25;106777;1272;22562;-60
2023/01/24 19:59:00;;;;;;;15.70;9.10;;;;;;;5.45;72.41;103348.45;106691;1272;23240;-60
2023/01/24 20:01:30;;;;;;;15.10;10.00;;;;;;;5.42;72.42;103349.38;106368;1279;25348;-60
2023/01/24 20:03:58;;;;;;;20.00;10.40;;;;;;;5.47;72.25;103346.98;106596;1274;25345;-60
2023/01/24 20:06:47;;;;;;;18.80;10.10;;;;;;;6.29;69.06;103349.39;106614;1274;213783;-60
2023/01/24 20:09:15;;;;;;;16.50;10.00;;;;;;;6.45;68.10;103348.24;106008;1276;1003736;-60
2023/01/24 20:11:44;;;;;;;16.10;9.70;;;;;;;6.50;67.63;103346.70;106888;1268;25403;-60
2023/01/24 20:14:12;;;;;;;18.10;9.90;;;;;;;6.57;67.36;103349.36;106854;1270;25527;-58
2023/01/24 20:16:41;;;;;;;17.20;8.90;;;;;;;6.63;67.11;103350.77;106889;1274;26501;-60
2023/01/24 20:19:10;;;;;;;13.50;8.70;;;;;;;6.65;66.56;103349.65;106980;1264;25377;-60
2023/01/24 20:21:56;;;;;;;17.00;9.30;;;;;;;6.69;66.07;103350.13;107001;1269;25369;-58
2023/01/24 20:24:25;;;;;;;16.50;9.70;;;;;;;6.71;65.89;103356.60;107002;1272;24215;-58
2023/01/24 20:26:54;;;;;;;17.50;9.40;;;;;;;6.72;65.68;103357.48;106933;1273;22537;-58
2023/01/24 20:29:23;;;;;;;17.40;8.80;;;;;;;6.75;65.46;103355.33;106947;1272;25565;-60
2023/01/24 20:31:52;;;;;;;17.70;8.50;;;;;;;6.76;65.18;103348.14;106951;1269;25425;-60
2023/01/24 20:34:24;;;;;;;17.60;8.00;;;;;;;6.74;64.86;103346.17;106713;1274;22538;-58
2023/01/24 20:36:53;;;;;;;13.00;8.40;;;;;;;6.72;64.62;103347.30;106907;1269;22559;-60
2023/01/24 20:39:21;;;;;;;13.90;8.00;;;;;;;6.69;64.42;103343.90;106092;1270;1003466;-60
2023/01/24 20:41:52;;;;;;;18.60;9.40;;;;;;;6.67;64.41;103347.48;106768;1271;25338;-59
2023/01/24 20:44:21;;;;;;;12.30;8.50;;;;;;;6.65;64.30;103343.45;106873;1276;22534;-60
2023/01/24 20:46:55;;;;;;;12.80;8.00;;;;;;;6.65;64.40;103335.68;106866;1268;22542;-60
2023/01/24 20:49:24;;;;;;;19.20;8.20;;;;;;;6.67;64.01;103336.09;106980;1269;23747;-60
2023/01/24 20:51:53;;;;;;;14.60;8.20;;;;;;;6.65;63.71;103332.92;106955;1270;25375;-60
2023/01/24 20:54:22;;;;;;;19.40;9.60;;;;;;;6.65;63.65;103331.02;106941;1271;22533;-60
2023/01/24 20:56:55;;;;;;;14.70;8.40;;;;;;;6.35;64.17;103331.98;106887;1269;25503;-60
2023/01/24 20:59:23;;;;;;;19.70;8.80;;;;;;;5.58;66.91;103329.55;106002;1258;1002883;-60
2023/01/24 21:01:52;;;;;;;12.20;8.60;;;;;;;5.50;67.38;103327.98;106849;1270;24669;-60
2023/01/24 21:04:21;;;;;;;13.60;9.20;;;;;;;6.31;64.77;103324.61;106776;1271;25491;-60
2023/01/24 21:06:50;;;;;;;19.60;9.50;;;;;;;6.58;63.49;103315.77;106892;1268;25528;-60
2023/01/24 21:09:20;;;;;;;13.10;8.30;;;;;;;6.63;63.34;103314.70;106877;1272;22657;-60
2023/01/24 21:11:50;;;;;;;17.60;9.00;;;;;;;6.57;63.38;103317.28;106047;1276;1003705;-60
2023/01/24 21:14:21;;;;;;;13.90;8.00;;;;;;;6.58;63.51;103321.80;106867;1269;24381;-60
2023/01/24 21:16:50;;;;;;;;;;;;;;;6.14;64.36;103319.67;106775;1276;22611;-60
2023/01/24 21:19:19;;;;;;;15.00;7.90;;;;;;;5.55;66.34;103320.79;106803;1269;22534;-60
2023/01/24 21:21:48;;;;;;;11.70;7.10;;;;;;;5.43;66.69;103321.19;106984;1270;23914;-60
2023/01/24 21:24:17;;;;;;;12.40;7.80;;;;;;;5.40;66.86;103317.77;106223;1272;1003110;-60
2023/01/24 21:27:02;;;;;;;11.00;7.00;;;;;;;5.36;66.98;103321.59;106895;1271;25464;-60
2023/01/24 21:29:30;;;;;;;14.30;7.60;;;;;;;5.35;67.00;103317.23;106836;1270;25545;-60
2023/01/24 21:32:00;;;;;;;10.80;7.40;;;;;;;5.35;67.07;103322.06;106198;1273;1003728;-60
2023/01/24 21:34:29;;;;;;;15.10;7.50;;;;;;;5.33;67.07;103318.37;106818;1276;25403;-60
2023/01/24 21:36:57;;;;;;;10.10;6.80;;;;;;;5.32;66.91;103317.59;106797;1273;25449;-60
2023/01/24 21:39:26;;;;;;;13.60;7.50;;;;;;;5.31;66.96;103316.39;106918;1268;25341;-60
2023/01/24 21:41:55;;;;;;;12.70;7.60;;;;;;;5.37;66.93;103318.33;106885;1271;25471;-60
2023/01/24 21:44:30;;;;;;;11.20;7.00;;;;;;;6.40;63.84;103317.16;106820;1273;25338;-60
2023/01/24 21:47:02;;;;;;;14.20;7.90;;;;;;;6.33;63.66;103322.30;106927;1272;24220;-60
2023/01/24 21:49:30;;;;;;;11.80;7.10;;;;;;;5.68;65.66;103327.67;106970;1262;25316;-60
2023/01/24 21:52:00;;;;;;;12.40;7.50;;;;;;;5.50;66.54;103324.04;106794;1272;26509;-60
2023/01/24 21:54:33;;;;;;;14.80;7.90;;;;;;;5.49;66.73;103330.36;106835;1268;24357;-60
2023/01/24 22:00:06;;;;;;;8.40;6.30;;;;;;;5.47;66.94;103333.58;106896;1272;25360;-58
2023/01/24 22:02:41;;;;;;;13.30;7.30;;;;;;;5.48;66.89;103338.58;106363;1276;25830;-60
